Terminal Aerodrome Forecast
Issued by NWS

Home | Current Version | Previous Version | Text Only | Print | Product List | Glossary On
Versions: 1 2 3 4 5 6 7 8 9 10 11 12 13 14 15 16 17
281
FTUS43 KPAH 241522 AAA
TAFCGI
TAF AMD
KCGI 241522Z 2415/2512 21008G18KT P6SM FEW030 SCT150
     FM250000 19005KT P6SM SCT250=

USA.gov is the U.S. government's official web portal to all federal, state and local government web resources and services.